createdAt,value
2023-05-12T00:00:32.821Z,14.50
2023-05-12T00:03:03.828Z,14.47
2023-05-12T00:05:32.094Z,14.18
2023-05-12T00:08:00.215Z,14.29
2023-05-12T00:10:29.071Z,14.63
2023-05-12T00:12:57.420Z,14.38
2023-05-12T00:15:25.621Z,14.27
2023-05-12T00:17:53.777Z,13.93
2023-05-12T00:20:23.468Z,14.25
2023-05-12T00:22:51.622Z,14.29
2023-05-12T00:25:19.750Z,14.50
2023-05-12T00:27:47.882Z,14.40
2023-05-12T00:30:16.279Z,14.27
2023-05-12T00:32:44.501Z,14.39
2023-05-12T00:35:12.826Z,14.42
2023-05-12T00:37:44.007Z,14.42
2023-05-12T00:40:13.086Z,14.38
2023-05-12T00:42:41.571Z,14.44
2023-05-12T00:45:11.012Z,14.46
2023-05-12T00:47:39.352Z,14.25
2023-05-12T00:50:08.696Z,14.54
2023-05-12T00:52:37.006Z,14.24
2023-05-12T00:55:07.575Z,14.20
2023-05-12T00:57:35.756Z,14.14
2023-05-12T01:00:05.188Z,14.01
2023-05-12T01:02:34.194Z,13.96
2023-05-12T01:05:02.716Z,13.91
2023-05-12T01:07:33.650Z,14.60
2023-05-12T01:10:02.479Z,14.33
2023-05-12T01:12:36.117Z,14.25
2023-05-12T01:15:04.849Z,14.47
2023-05-12T01:17:34.335Z,14.32
2023-05-12T01:20:04.726Z,14.37
2023-05-12T01:22:34.154Z,14.20
2023-05-12T01:25:05.756Z,14.22
2023-05-12T01:27:35.989Z,14.05
2023-05-12T01:30:07.022Z,14.11
2023-05-12T01:32:36.957Z,14.26
2023-05-12T01:35:06.671Z,14.17
2023-05-12T01:37:36.208Z,14.55
2023-05-12T01:40:07.014Z,14.56
2023-05-12T01:42:36.538Z,14.21
2023-05-12T01:45:05.053Z,14.14
2023-05-12T01:47:33.390Z,14.25
2023-05-12T01:50:08.080Z,14.38
2023-05-12T01:52:36.351Z,14.39
2023-05-12T01:55:07.348Z,14.31
2023-05-12T01:57:42.786Z,14.25
2023-05-12T02:00:12.837Z,14.35
2023-05-12T02:02:43.968Z,14.47
2023-05-12T02:05:14.234Z,14.47
2023-05-12T02:07:45.002Z,14.17
2023-05-12T02:10:14.213Z,14.03
2023-05-12T02:12:43.783Z,14.00
2023-05-12T02:15:12.581Z,14.39
2023-05-12T02:17:45.121Z,14.62
2023-05-12T02:20:14.384Z,14.31
2023-05-12T02:22:44.332Z,14.19
2023-05-12T02:25:12.450Z,14.27
2023-05-12T02:27:40.979Z,14.34
2023-05-12T02:30:11.635Z,14.19
2023-05-12T02:32:39.905Z,14.31
2023-05-12T02:35:09.761Z,14.54
2023-05-12T02:37:39.318Z,14.31
2023-05-12T02:40:08.997Z,14.33
2023-05-12T02:42:38.529Z,14.06
2023-05-12T02:45:08.016Z,14.24
2023-05-12T02:47:37.706Z,14.49
2023-05-12T02:50:07.115Z,14.26
2023-05-12T02:52:35.370Z,14.50
2023-05-12T02:55:03.504Z,14.46
2023-05-12T02:57:34.091Z,14.30
2023-05-12T03:00:04.885Z,14.37
2023-05-12T03:02:35.080Z,14.34
2023-05-12T03:05:04.839Z,14.79
2023-05-12T03:07:33.094Z,14.29
2023-05-12T03:10:01.682Z,14.19
2023-05-12T03:12:30.392Z,14.42
2023-05-12T03:14:59.435Z,14.30
2023-05-12T03:17:28.188Z,14.15
2023-05-12T03:19:56.652Z,14.53
2023-05-12T03:22:26.313Z,14.37
2023-05-12T03:24:54.515Z,14.22
2023-05-12T03:27:23.943Z,14.16
2023-05-12T03:29:52.436Z,14.15
2023-05-12T03:32:20.749Z,14.28
2023-05-12T03:34:49.543Z,14.23
2023-05-12T03:37:18.156Z,14.26
2023-05-12T03:39:47.854Z,14.23
2023-05-12T03:42:16.494Z,14.16
2023-05-12T03:44:44.789Z,14.42
2023-05-12T03:47:13.751Z,14.39
2023-05-12T03:49:41.998Z,14.36
2023-05-12T03:52:10.224Z,14.29
2023-05-12T03:54:39.174Z,14.28
2023-05-12T03:57:08.823Z,14.23
2023-05-12T03:59:36.986Z,14.00
2023-05-12T04:02:07.777Z,13.89
2023-05-12T04:04:36.842Z,14.11
2023-05-12T04:07:05.317Z,14.27
2023-05-12T04:09:34.158Z,14.50
2023-05-12T04:12:02.340Z,14.09
2023-05-12T04:14:42.305Z,14.41
2023-05-12T04:17:11.327Z,14.18
2023-05-12T04:19:39.521Z,14.00
2023-05-12T04:22:07.907Z,14.22
2023-05-12T04:24:38.265Z,14.20
2023-05-12T04:27:07.456Z,14.29
2023-05-12T04:29:37.884Z,14.11
2023-05-12T04:32:07.648Z,14.28
2023-05-12T04:34:36.321Z,14.23
2023-05-12T04:37:04.899Z,14.30
2023-05-12T04:39:33.565Z,14.26
2023-05-12T04:42:03.311Z,14.34
2023-05-12T04:44:34.182Z,14.22
2023-05-12T04:47:03.883Z,14.27
2023-05-12T04:49:32.128Z,14.09
2023-05-12T04:52:00.332Z,14.23
2023-05-12T04:54:28.593Z,14.28
2023-05-12T04:56:57.283Z,13.89
2023-05-12T04:59:26.051Z,14.38
2023-05-12T05:01:57.194Z,14.45
2023-05-12T05:04:27.084Z,14.29
2023-05-12T05:06:56.211Z,14.27
2023-05-12T05:09:24.965Z,14.16
2023-05-12T05:11:53.690Z,14.14
2023-05-12T05:14:22.046Z,14.52
2023-05-12T05:16:50.554Z,14.40
2023-05-12T05:19:22.828Z,14.29
2023-05-12T05:21:55.286Z,14.53
2023-05-12T05:24:23.447Z,14.58
2023-05-12T05:26:51.705Z,14.83
2023-05-12T05:29:20.650Z,15.21
2023-05-12T05:31:49.260Z,15.25
2023-05-12T05:34:17.725Z,14.98
2023-05-12T05:36:45.910Z,15.32
2023-05-12T05:39:15.454Z,14.60
2023-05-12T05:41:44.576Z,15.02
2023-05-12T05:44:12.822Z,14.94
2023-05-12T05:46:41.430Z,15.31
2023-05-12T05:49:09.646Z,15.34
2023-05-12T05:51:37.820Z,15.38
2023-05-12T05:54:06.333Z,15.38
2023-05-12T05:56:36.330Z,15.38
2023-05-12T05:59:05.604Z,15.61
2023-05-12T06:01:34.668Z,15.53
2023-05-12T06:04:03.064Z,15.44
2023-05-12T06:06:31.422Z,15.52
2023-05-12T06:09:01.220Z,15.54
2023-05-12T06:11:29.674Z,15.48
2023-05-12T06:13:59.240Z,15.51
2023-05-12T06:16:29.199Z,15.49
2023-05-12T06:18:57.495Z,15.62
2023-05-12T06:21:25.816Z,15.44
2023-05-12T06:23:56.141Z,15.55
2023-05-12T06:26:24.373Z,15.66
2023-05-12T06:28:52.724Z,15.34
2023-05-12T06:31:22.429Z,15.52
2023-05-12T06:33:51.693Z,15.33
2023-05-12T06:36:19.853Z,15.05
2023-05-12T06:38:48.171Z,15.53
2023-05-12T06:41:16.536Z,15.58
2023-05-12T06:43:46.059Z,15.64
2023-05-12T06:46:15.781Z,15.41
2023-05-12T06:48:46.279Z,15.43
2023-05-12T06:51:14.637Z,15.27
2023-05-12T06:53:43.560Z,15.22
2023-05-12T06:56:11.962Z,15.30
2023-05-12T06:58:40.867Z,15.41
2023-05-12T07:01:09.043Z,15.65
2023-05-12T07:03:37.307Z,15.53
2023-05-12T07:06:07.306Z,15.67
2023-05-12T07:08:35.499Z,15.72
2023-05-12T07:11:03.758Z,16.03
2023-05-12T07:13:31.944Z,16.08
2023-05-12T07:16:00.544Z,16.09
2023-05-12T07:18:28.829Z,16.32
2023-05-12T07:20:57.175Z,15.92
2023-05-12T07:23:27.012Z,15.69
2023-05-12T07:25:55.312Z,15.95
2023-05-12T07:28:23.505Z,15.77
2023-05-12T07:30:51.869Z,16.08
2023-05-12T07:33:20.186Z,16.41
2023-05-12T07:35:48.336Z,16.73
2023-05-12T07:38:16.506Z,17.05
2023-05-12T07:40:46.132Z,17.16
2023-05-12T07:43:14.361Z,16.30
2023-05-12T07:45:42.692Z,16.52
2023-05-12T07:48:11.593Z,16.80
2023-05-12T07:50:40.013Z,16.75
2023-05-12T07:53:08.179Z,16.91
2023-05-12T07:55:36.421Z,17.35
2023-05-12T07:58:06.053Z,17.17
2023-05-12T08:00:34.423Z,17.51
2023-05-12T08:03:03.097Z,17.53
2023-05-12T08:05:31.846Z,17.40
2023-05-12T08:08:00.046Z,17.48
2023-05-12T08:10:29.943Z,17.91
2023-05-12T08:12:58.132Z,17.66
2023-05-12T08:15:27.856Z,17.26
2023-05-12T08:17:56.434Z,17.57
2023-05-12T08:20:25.031Z,17.32
2023-05-12T08:22:53.365Z,17.40
2023-05-12T08:25:23.648Z,17.72
2023-05-12T08:27:52.100Z,17.81
2023-05-12T08:30:20.468Z,17.35
2023-05-12T08:32:50.211Z,17.75
2023-05-12T08:35:20.664Z,17.08
2023-05-12T08:37:49.377Z,17.18
2023-05-12T08:40:26.468Z,17.45
2023-05-12T08:43:02.031Z,17.20
2023-05-12T08:45:30.747Z,17.43
2023-05-12T08:48:01.001Z,17.62
2023-05-12T08:50:30.110Z,17.43
2023-05-12T08:52:58.513Z,17.59
2023-05-12T08:55:32.680Z,17.29
2023-05-12T08:58:04.535Z,17.52
2023-05-12T09:00:34.250Z,17.63
2023-05-12T09:03:07.036Z,17.47
2023-05-12T09:05:37.737Z,17.63
2023-05-12T09:08:06.766Z,17.64
2023-05-12T09:10:35.877Z,17.73
2023-05-12T09:13:07.780Z,16.83
2023-05-12T09:15:37.698Z,17.06
2023-05-12T09:18:07.614Z,17.38
2023-05-12T09:20:35.885Z,17.12
2023-05-12T09:23:17.023Z,16.80
2023-05-12T09:25:47.297Z,16.48
2023-05-12T09:28:15.804Z,16.86
2023-05-12T09:30:44.047Z,16.78
2023-05-12T09:33:14.614Z,16.64
2023-05-12T09:35:44.101Z,16.96
2023-05-12T09:38:13.204Z,16.76
2023-05-12T09:40:43.201Z,16.71
2023-05-12T09:43:15.182Z,17.13
2023-05-12T09:45:44.226Z,17.10
2023-05-12T09:48:14.601Z,17.35
2023-05-12T09:50:48.358Z,17.25
2023-05-12T09:53:19.697Z,16.91
2023-05-12T09:55:49.533Z,17.66
2023-05-12T09:58:18.757Z,18.19
2023-05-12T10:03:22.168Z,18.51
2023-05-12T10:05:51.782Z,18.09
2023-05-12T10:08:24.280Z,18.03
2023-05-12T10:10:53.187Z,17.91
2023-05-12T10:13:22.179Z,18.19
2023-05-12T10:15:51.374Z,18.46
2023-05-12T10:18:23.428Z,18.09
2023-05-12T10:20:52.830Z,18.08
2023-05-12T10:23:21.785Z,17.77
2023-05-12T10:25:50.956Z,18.07
2023-05-12T10:28:20.149Z,18.49
2023-05-12T10:30:50.369Z,18.53
2023-05-12T10:33:20.184Z,18.62
2023-05-12T10:35:50.919Z,18.69
2023-05-12T10:38:21.301Z,18.42
2023-05-12T10:40:54.654Z,18.53
2023-05-12T10:43:24.834Z,18.47
2023-05-12T10:46:11.019Z,18.24
2023-05-12T10:48:56.129Z,17.91
2023-05-12T10:51:26.630Z,17.86
2023-05-12T10:53:58.276Z,18.23
2023-05-12T10:56:29.243Z,18.29
2023-05-12T10:59:08.577Z,18.11
2023-05-12T11:01:37.876Z,18.22
2023-05-12T11:04:17.143Z,18.07
2023-05-12T11:06:47.015Z,17.67
2023-05-12T11:09:17.687Z,17.79
2023-05-12T11:11:49.776Z,17.40
2023-05-12T11:14:19.162Z,16.86
2023-05-12T11:16:47.838Z,16.77
2023-05-12T11:19:20.141Z,17.01
2023-05-12T11:21:49.807Z,17.33
2023-05-12T11:24:19.131Z,16.85
2023-05-12T11:26:51.875Z,16.65
2023-05-12T11:29:22.091Z,16.97
2023-05-12T11:31:50.959Z,16.97
2023-05-12T11:34:25.223Z,17.19
2023-05-12T11:36:57.400Z,17.66
2023-05-12T11:39:27.790Z,17.37
2023-05-12T11:42:12.214Z,17.54
2023-05-12T11:44:48.429Z,18.04
2023-05-12T11:47:18.433Z,18.00
2023-05-12T11:49:49.919Z,18.04
2023-05-12T11:52:19.788Z,18.26
2023-05-12T11:54:52.220Z,18.42
2023-05-12T11:57:30.871Z,18.37
2023-05-12T12:00:02.480Z,18.73
2023-05-12T12:02:39.921Z,18.97
2023-05-12T12:05:19.318Z,18.79
2023-05-12T12:07:48.268Z,18.17
2023-05-12T12:10:19.151Z,18.96
2023-05-12T12:12:47.926Z,19.30
2023-05-12T12:15:16.358Z,18.99
2023-05-12T12:17:44.882Z,19.34
2023-05-12T12:20:31.735Z,19.64
2023-05-12T12:23:01.563Z,19.29
2023-05-12T12:25:31.338Z,19.15
2023-05-12T12:28:03.045Z,18.93
2023-05-12T12:30:32.261Z,18.60
2023-05-12T12:33:00.850Z,19.03
2023-05-12T12:35:30.736Z,18.92
2023-05-12T12:38:01.506Z,18.87
2023-05-12T12:40:32.135Z,18.69
2023-05-12T12:43:00.437Z,18.04
2023-05-12T12:45:29.861Z,18.08
2023-05-12T12:47:58.568Z,18.17
2023-05-12T12:50:27.805Z,18.60
2023-05-12T12:52:56.197Z,18.71
2023-05-12T12:55:25.960Z,18.64
2023-05-12T12:57:55.764Z,18.70
2023-05-12T13:00:24.847Z,18.79
2023-05-12T13:02:53.551Z,18.71
2023-05-12T13:05:22.080Z,18.72
2023-05-12T13:07:51.633Z,18.88
2023-05-12T13:10:19.884Z,18.74
2023-05-12T13:12:48.136Z,18.99
2023-05-12T13:15:19.567Z,19.08
2023-05-12T13:17:48.086Z,18.83
2023-05-12T13:20:16.982Z,18.56
2023-05-12T13:22:45.915Z,18.81
2023-05-12T13:25:14.163Z,18.70
2023-05-12T13:27:42.336Z,17.84
2023-05-12T13:30:13.488Z,17.38
2023-05-12T13:32:43.569Z,17.28
2023-05-12T13:35:11.912Z,17.68
2023-05-12T13:37:40.093Z,17.75
2023-05-12T13:40:10.645Z,17.28
2023-05-12T13:42:39.050Z,17.65
2023-05-12T13:45:09.191Z,17.42
2023-05-12T13:47:37.819Z,17.70
2023-05-12T13:50:09.028Z,17.71
2023-05-12T13:52:37.529Z,17.64
2023-05-12T13:55:06.378Z,17.22
2023-05-12T13:57:34.605Z,17.32
2023-05-12T14:00:03.571Z,17.68
2023-05-12T14:02:34.349Z,17.91
2023-05-12T14:05:02.676Z,17.80
2023-05-12T14:07:32.413Z,17.89
2023-05-12T14:10:00.800Z,17.74
2023-05-12T14:12:29.267Z,17.45
2023-05-12T14:15:07.323Z,17.03
2023-05-12T14:17:45.670Z,17.19
2023-05-12T14:20:14.255Z,17.36
2023-05-12T14:22:43.802Z,17.83
2023-05-12T14:25:12.053Z,18.13
2023-05-12T14:27:40.223Z,18.27
2023-05-12T14:30:10.684Z,17.70
2023-05-12T14:32:39.183Z,17.94
2023-05-12T14:35:09.513Z,18.00
2023-05-12T14:37:37.760Z,17.84
2023-05-12T14:40:08.659Z,17.72
2023-05-12T14:42:37.029Z,17.94
2023-05-12T14:45:06.668Z,17.77
2023-05-12T14:47:35.036Z,17.67
2023-05-12T14:50:03.463Z,17.46
2023-05-12T14:52:38.125Z,17.53
2023-05-12T14:55:12.789Z,17.60
2023-05-12T14:57:41.582Z,17.66
2023-05-12T15:00:12.392Z,17.80
2023-05-12T15:02:41.469Z,17.50
2023-05-12T15:05:10.864Z,17.57
2023-05-12T15:07:39.504Z,17.62
2023-05-12T15:10:10.173Z,16.91
2023-05-12T15:12:38.448Z,17.17
2023-05-12T15:15:08.934Z,17.09
2023-05-12T15:17:37.813Z,17.14
2023-05-12T15:20:07.096Z,17.20
2023-05-12T15:22:36.728Z,16.93
2023-05-12T15:25:05.587Z,16.91
2023-05-12T15:27:35.289Z,17.12
2023-05-12T15:30:03.820Z,16.88
2023-05-12T15:32:32.494Z,17.24
2023-05-12T15:35:00.891Z,17.21
2023-05-12T15:37:31.504Z,17.14
2023-05-12T15:39:59.811Z,16.66
2023-05-12T15:42:33.168Z,16.52
2023-05-12T15:45:03.759Z,17.03
2023-05-12T15:47:32.975Z,16.87
2023-05-12T15:50:01.763Z,16.92
2023-05-12T15:52:30.645Z,17.32
2023-05-12T15:55:00.331Z,16.94
2023-05-12T15:57:29.226Z,16.77
2023-05-12T16:00:02.333Z,16.79
2023-05-12T16:02:50.865Z,16.63
2023-05-12T16:05:19.475Z,16.64
2023-05-12T16:07:48.514Z,16.90
2023-05-12T16:10:17.605Z,17.09
2023-05-12T16:12:47.873Z,16.69
2023-05-12T16:15:19.125Z,16.56
2023-05-12T16:17:47.909Z,16.63
2023-05-12T16:20:32.128Z,16.78
2023-05-12T16:23:00.719Z,16.68
2023-05-12T16:25:29.213Z,16.51
2023-05-12T16:27:57.510Z,16.37
2023-05-12T16:30:27.624Z,16.26
2023-05-12T16:32:56.391Z,16.54
2023-05-12T16:35:25.087Z,16.35
2023-05-12T16:37:53.476Z,16.26
2023-05-12T16:40:21.722Z,16.36
2023-05-12T16:42:50.299Z,16.31
2023-05-12T16:45:19.410Z,16.21
2023-05-12T16:47:49.739Z,16.03
2023-05-12T16:50:18.497Z,16.08
2023-05-12T16:52:47.237Z,16.12
2023-05-12T16:55:15.981Z,16.02
2023-05-12T16:57:44.353Z,16.28
2023-05-12T17:00:14.534Z,16.46
2023-05-12T17:02:43.647Z,16.29
2023-05-12T17:05:13.877Z,16.17
2023-05-12T17:07:43.197Z,16.29
2023-05-12T17:10:12.209Z,16.10
2023-05-12T17:12:41.039Z,16.02
2023-05-12T17:15:12.009Z,16.30
2023-05-12T17:17:41.161Z,15.95
2023-05-12T17:20:12.181Z,15.90
2023-05-12T17:22:44.868Z,15.89
2023-05-12T17:25:13.784Z,16.25
2023-05-12T17:27:42.666Z,16.04
2023-05-12T17:30:12.433Z,16.18
2023-05-12T17:32:41.868Z,15.78
2023-05-12T17:35:11.859Z,16.03
2023-05-12T17:37:42.945Z,16.02
2023-05-12T17:40:16.737Z,16.20
2023-05-12T17:42:45.818Z,16.03
2023-05-12T17:45:15.521Z,16.02
2023-05-12T17:47:46.290Z,15.96
2023-05-12T17:50:15.994Z,16.07
2023-05-12T17:52:46.603Z,16.03
2023-05-12T17:55:15.818Z,15.97
2023-05-12T17:57:45.154Z,15.75
2023-05-12T18:00:16.378Z,15.80
2023-05-12T18:02:46.560Z,15.85
2023-05-12T18:05:15.906Z,16.06
2023-05-12T18:07:46.681Z,15.84
2023-05-12T18:10:16.357Z,15.85
2023-05-12T18:12:45.386Z,15.91
2023-05-12T18:15:14.696Z,15.87
2023-05-12T18:17:44.061Z,15.86
2023-05-12T18:20:14.123Z,15.62
2023-05-12T18:22:44.004Z,15.91
2023-05-12T18:25:14.861Z,15.76
2023-05-12T18:27:44.106Z,15.92
2023-05-12T18:30:15.238Z,15.69
2023-05-12T18:32:44.676Z,15.47
2023-05-12T18:35:13.937Z,15.65
2023-05-12T18:37:43.487Z,15.56
2023-05-12T18:40:15.032Z,15.67
2023-05-12T18:42:44.396Z,15.70
2023-05-12T18:45:13.552Z,15.92
2023-05-12T18:47:42.950Z,15.48
2023-05-12T18:50:12.657Z,15.55
2023-05-12T18:52:41.914Z,15.44
2023-05-12T18:55:11.765Z,15.36
2023-05-12T18:57:42.341Z,15.67
2023-05-12T19:00:12.427Z,15.85
2023-05-12T19:02:42.869Z,15.74
2023-05-12T19:05:12.167Z,15.64
2023-05-12T19:07:41.827Z,15.46
2023-05-12T19:10:11.769Z,15.26
2023-05-12T19:12:42.445Z,15.46
2023-05-12T19:15:12.412Z,15.60
2023-05-12T19:17:42.055Z,15.73
2023-05-12T19:20:16.218Z,15.60
2023-05-12T19:22:47.072Z,15.42
2023-05-12T19:25:18.558Z,15.62
2023-05-12T19:27:49.582Z,15.36
2023-05-12T19:30:19.046Z,15.49
2023-05-12T19:32:48.778Z,15.45
2023-05-12T19:35:18.429Z,15.44
2023-05-12T19:37:48.212Z,15.13
2023-05-12T19:40:17.678Z,15.25
2023-05-12T19:42:46.861Z,15.23
2023-05-12T19:45:17.406Z,15.19
2023-05-12T19:47:46.962Z,15.18
2023-05-12T19:50:16.216Z,15.26
2023-05-12T19:52:45.431Z,15.26
2023-05-12T19:55:14.710Z,15.15
2023-05-12T19:57:44.606Z,15.10
2023-05-12T20:00:15.425Z,14.86
2023-05-12T20:02:46.515Z,14.87
2023-05-12T20:05:15.823Z,14.74
2023-05-12T20:07:48.313Z,14.91
2023-05-12T20:10:17.517Z,14.89
2023-05-12T20:12:46.799Z,15.21
2023-05-12T20:15:16.145Z,15.26
2023-05-12T20:17:46.686Z,14.72
2023-05-12T20:20:16.035Z,14.66
2023-05-12T20:22:45.092Z,14.62
2023-05-12T20:25:16.766Z,14.63
2023-05-12T20:27:46.308Z,14.86
2023-05-12T20:30:15.779Z,14.82
2023-05-12T20:32:49.316Z,14.83
2023-05-12T20:35:18.631Z,14.82
2023-05-12T20:37:48.145Z,14.97
2023-05-12T20:40:17.601Z,14.95
2023-05-12T20:42:47.296Z,14.91
2023-05-12T20:45:16.589Z,14.95
2023-05-12T20:47:47.209Z,14.98
2023-05-12T20:50:16.293Z,14.99
2023-05-12T20:52:46.533Z,15.15
2023-05-12T20:55:15.212Z,15.10
2023-05-12T20:57:43.762Z,15.17
2023-05-12T21:00:13.718Z,14.98
2023-05-12T21:02:42.074Z,14.83
2023-05-12T21:05:11.708Z,14.57
2023-05-12T21:07:39.889Z,14.69
2023-05-12T21:10:08.999Z,14.71
2023-05-12T21:12:37.507Z,14.54
2023-05-12T21:15:06.859Z,14.78
2023-05-12T21:17:35.396Z,14.88
2023-05-12T21:20:03.878Z,14.81
2023-05-12T21:22:33.469Z,14.67
2023-05-12T21:25:02.072Z,14.64
2023-05-12T21:27:30.506Z,14.79
2023-05-12T21:29:59.039Z,14.62
2023-05-12T21:32:27.327Z,14.73
2023-05-12T21:34:55.475Z,14.64
2023-05-12T21:37:23.675Z,14.53
2023-05-12T21:39:53.158Z,14.70
2023-05-12T21:42:21.475Z,14.79
2023-05-12T21:44:50.962Z,14.58
2023-05-12T21:47:19.321Z,14.59
2023-05-12T21:49:47.616Z,14.62
2023-05-12T21:52:16.097Z,14.70
2023-05-12T21:54:44.205Z,14.68
2023-05-12T21:57:13.734Z,14.53
2023-05-12T21:59:41.949Z,14.44
2023-05-12T22:02:10.208Z,14.60
2023-05-12T22:04:38.405Z,14.76
2023-05-12T22:07:07.828Z,14.70
2023-05-12T22:09:36.015Z,14.52
2023-05-12T22:12:04.242Z,14.44
2023-05-12T22:14:33.738Z,14.52
2023-05-12T22:17:02.578Z,14.59
2023-05-12T22:19:31.074Z,14.41
2023-05-12T22:21:59.298Z,14.59
2023-05-12T22:24:27.639Z,14.43
2023-05-12T22:26:55.844Z,14.41
2023-05-12T22:29:24.106Z,14.57
2023-05-12T22:31:53.637Z,14.67
2023-05-12T22:34:21.773Z,14.45
2023-05-12T22:36:49.945Z,14.35
2023-05-12T22:39:19.172Z,14.04
2023-05-12T22:41:47.444Z,14.45
2023-05-12T22:44:15.860Z,14.34
2023-05-12T22:46:44.157Z,14.03
2023-05-12T22:49:13.777Z,10.59
2023-05-12T22:51:41.897Z,13.49
2023-05-12T22:54:10.106Z,13.90
2023-05-12T22:56:38.328Z,14.20
2023-05-12T22:59:06.530Z,14.51
2023-05-12T23:01:34.773Z,14.60
2023-05-12T23:04:02.929Z,14.48
2023-05-12T23:06:32.502Z,14.14
2023-05-12T23:09:01.023Z,13.16
2023-05-12T23:11:29.174Z,13.53
2023-05-12T23:13:57.557Z,14.30
2023-05-12T23:16:25.947Z,14.20
2023-05-12T23:18:54.147Z,14.07
2023-05-12T23:21:23.067Z,14.16
2023-05-12T23:23:52.623Z,14.15
2023-05-12T23:26:20.899Z,14.71
2023-05-12T23:28:49.078Z,14.72
2023-05-12T23:31:17.419Z,14.69
2023-05-12T23:33:45.667Z,14.43
2023-05-12T23:36:14.579Z,14.57
2023-05-12T23:38:42.937Z,14.42
2023-05-12T23:41:12.415Z,14.38
2023-05-12T23:43:42.276Z,14.24
2023-05-12T23:46:10.658Z,14.40
2023-05-12T23:48:38.927Z,14.28
2023-05-12T23:51:07.176Z,14.25
2023-05-12T23:53:36.412Z,14.42
2023-05-12T23:56:04.869Z,14.46
2023-05-12T23:58:34.628Z,14.49
